Time;durP1;ratioP1;P1;durP2;ratioP2;P2;SDS_P1;SDS_P2;PMS_P1;PMS_P2;Temp;Humidity;BMP_temperature;BMP_pressure;BME280_temperature;BME280_humidity;BME280_pressure;Samples;Min_cycle;Max_cycle;Signal;HPM_P1;HPM_P2
2021/08/26 00:07:40;;;;;;;20.43;8.20;;;;;;;16.81;71.56;100743.06;5040974;28;20507;-76
2021/08/26 00:10:08;;;;;;;18.13;7.10;;;;;;;16.74;71.35;100744.06;5041057;28;20412;-76
2021/08/26 00:12:42;;;;;;;18.27;6.37;;;;;;;16.81;71.04;100745.72;5040779;28;20494;-76
2021/08/26 00:15:08;;;;;;;23.33;8.40;;;;;;;16.89;71.09;100739.47;5040897;28;20692;-76
2021/08/26 00:17:34;;;;;;;24.50;7.87;;;;;;;16.74;71.66;100743.22;5040676;28;20508;-75
2021/08/26 00:19:59;;;;;;;18.03;6.87;;;;;;;16.60;72.34;100740.78;5040772;28;20725;-76
2021/08/26 00:22:25;;;;;;;20.07;6.60;;;;;;;16.77;71.62;100744.03;5023305;28;20192;-76
2021/08/26 00:24:50;;;;;;;15.37;6.70;;;;;;;17.03;70.79;100744.53;5040334;28;20236;-75
2021/08/26 00:27:15;;;;;;;20.33;6.97;;;;;;;16.89;71.61;100739.47;5041418;28;20524;-75
2021/08/26 00:29:41;;;;;;;16.93;7.80;;;;;;;16.49;72.60;100740.94;5023443;28;20166;-76
2021/08/26 00:32:06;;;;;;;19.57;7.10;;;;;;;16.83;71.53;100740.41;5023326;28;20200;-76
2021/08/26 00:34:32;;;;;;;25.10;8.63;;;;;;;16.82;71.66;100733.44;5040482;28;20534;-76
2021/08/26 00:36:57;;;;;;;22.20;6.60;;;;;;;16.81;71.71;100729.91;5040178;28;20497;-75
2021/08/26 00:39:22;;;;;;;27.13;7.53;;;;;;;16.69;72.37;100726.63;5022991;28;20173;-75
2021/08/26 00:41:48;;;;;;;19.10;7.63;;;;;;;16.60;72.63;100723.25;5040562;28;20190;-75
2021/08/26 00:44:13;;;;;;;29.67;6.93;;;;;;;16.54;72.66;100722.47;5039997;28;20177;-75
2021/08/26 00:46:40;;;;;;;23.00;7.37;;;;;;;16.46;73.19;100718.16;5022932;28;20189;-75
2021/08/26 00:49:13;;;;;;;20.97;7.50;;;;;;;16.75;72.01;100716.88;5006737;28;20185;-74
2021/08/26 00:51:38;;;;;;;19.77;9.17;;;;;;;16.71;72.70;100712.53;5022886;28;20784;-75
2021/08/26 00:54:05;;;;;;;20.63;7.70;;;;;;;16.81;72.06;100713.25;5022585;28;20441;-75
2021/08/26 00:56:30;;;;;;;21.23;7.20;;;;;;;16.69;72.48;100710.81;5040256;28;20170;-75
2021/08/26 00:58:57;;;;;;;12.50;6.70;;;;;;;16.57;72.74;100704.00;5039366;28;20402;-76
2021/08/26 01:01:29;;;;;;;25.57;7.77;;;;;;;16.54;72.82;100704.03;5022612;28;20423;-76
2021/08/26 01:04:19;;;;;;;27.20;8.60;;;;;;;16.56;72.80;100704.88;5040052;28;20753;-76
2021/08/26 01:07:01;;;;;;;15.60;6.80;;;;;;;16.32;73.42;100710.50;5039878;28;20392;-77
2021/08/26 01:09:32;;;;;;;20.57;7.60;;;;;;;16.41;73.23;100712.13;5022571;28;20413;-75
2021/08/26 01:11:57;;;;;;;18.00;8.07;;;;;;;16.76;72.34;100709.81;5039600;28;20482;-74
2021/08/26 01:14:22;;;;;;;20.33;7.03;;;;;;;16.62;72.46;100704.78;5022209;28;20407;-75
2021/08/26 01:16:48;;;;;;;24.43;7.67;;;;;;;16.35;73.91;100713.97;5039853;28;20512;-75
2021/08/26 01:19:13;;;;;;;20.33;7.70;;;;;;;16.49;73.53;100707.63;5039369;28;20203;-75
2021/08/26 01:21:38;;;;;;;25.73;7.87;;;;;;;16.62;72.90;100704.78;5042571;28;20170;-75
2021/08/26 01:24:06;;;;;;;23.93;8.57;;;;;;;16.44;73.02;100709.44;5047520;28;20471;-75
2021/08/26 01:26:45;;;;;;;22.93;7.20;;;;;;;16.48;73.22;100705.88;5049592;28;20253;-75
2021/08/26 01:29:11;;;;;;;17.33;7.70;;;;;;;16.45;73.30;100698.03;5032570;28;20702;-75
2021/08/26 01:31:44;;;;;;;18.60;6.93;;;;;;;16.13;74.58;100699.38;5023154;28;20391;-75
2021/08/26 01:34:10;;;;;;;24.97;8.40;;;;;;;16.10;74.64;100695.91;5039169;28;20466;-74
2021/08/26 01:36:36;;;;;;;23.50;8.03;;;;;;;16.28;74.28;100700.91;5039722;28;20372;-74
2021/08/26 01:39:07;;;;;;;21.33;8.10;;;;;;;16.30;73.70;100698.25;5039108;28;20177;-75
2021/08/26 01:41:59;;;;;;;38.13;9.83;;;;;;;16.26;73.97;100699.19;5038927;28;20431;-75
2021/08/26 01:44:26;;;;;;;23.63;7.47;;;;;;;16.11;74.45;100698.50;5035728;28;20552;-75
2021/08/26 01:46:56;;;;;;;22.47;8.47;;;;;;;16.46;73.84;100701.53;5021889;28;20391;-75
2021/08/26 01:49:22;;;;;;;26.53;8.80;;;;;;;16.45;73.26;100705.94;5038821;28;20427;-75
2021/08/26 01:51:47;;;;;;;23.27;8.67;;;;;;;16.45;73.83;100705.94;5038724;28;20478;-75
2021/08/26 01:54:12;;;;;;;21.97;8.10;;;;;;;15.95;75.17;100702.25;5039162;28;20158;-77
2021/08/26 01:56:38;;;;;;;28.70;9.17;;;;;;;16.06;75.70;100704.72;5038772;28;20181;-77
2021/08/26 01:59:03;;;;;;;25.77;9.13;;;;;;;16.09;75.68;100702.06;5038793;28;20412;-76
2021/08/26 02:01:28;;;;;;;21.70;7.90;;;;;;;16.31;74.98;100702.63;5039258;28;20173;-76
2021/08/26 02:03:55;;;;;;;23.13;9.03;;;;;;;16.19;75.06;100701.03;5038537;28;20166;-77
2021/08/26 02:06:20;;;;;;;30.87;9.40;;;;;;;16.10;75.27;100693.28;5021571;28;20260;-77
2021/08/26 02:08:46;;;;;;;25.80;9.40;;;;;;;16.37;74.28;100702.53;5021999;28;20774;-77
2021/08/26 02:11:11;;;;;;;28.70;9.33;;;;;;;16.27;74.99;100701.78;5038106;28;20182;-76
2021/08/26 02:13:36;;;;;;;28.63;7.90;;;;;;;16.19;75.57;100693.16;5038549;28;20190;-77
2021/08/26 02:16:02;;;;;;;30.57;8.63;;;;;;;16.41;74.68;100690.19;5039023;28;20162;-76
2021/08/26 02:18:27;;;;;;;27.43;9.67;;;;;;;16.21;75.28;100695.75;5038398;28;20185;-77
2021/08/26 02:20:52;;;;;;;32.10;8.83;;;;;;;16.19;75.85;100681.78;5038426;28;20206;-76
2021/08/26 02:23:18;;;;;;;19.97;8.40;;;;;;;15.94;76.61;100680.34;5021488;28;20461;-76
2021/08/26 02:25:43;;;;;;;27.23;8.43;;;;;;;16.23;75.33;100686.09;5021179;28;20304;-77
2021/08/26 02:28:08;;;;;;;27.50;8.47;;;;;;;16.48;74.51;100683.94;5038400;28;20185;-76
2021/08/26 02:30:34;;;;;;;22.20;8.30;;;;;;;16.38;74.99;100672.69;5039117;28;20185;-76
2021/08/26 02:32:59;;;;;;;30.83;9.77;;;;;;;16.08;75.72;100674.88;5038132;28;20527;-76
2021/08/26 02:35:24;;;;;;;19.70;7.83;;;;;;;15.83;76.67;100682.25;5038286;28;20178;-76
2021/08/26 02:37:50;;;;;;;29.23;7.80;;;;;;;16.07;76.31;100688.91;5038575;28;20190;-75
2021/08/26 02:40:15;;;;;;;27.07;9.33;;;;;;;15.87;76.62;100683.06;5020812;28;20170;-76
2021/08/26 02:42:40;;;;;;;22.23;7.60;;;;;;;15.92;76.38;100686.50;5038198;28;20232;-76
2021/08/26 02:45:06;;;;;;;19.97;7.63;;;;;;;16.21;75.75;100694.00;5038403;28;20193;-76
2021/08/26 02:47:31;;;;;;;27.80;9.23;;;;;;;16.14;76.05;100693.22;5037995;28;20208;-76
2021/08/26 02:49:57;;;;;;;20.70;8.20;;;;;;;16.21;75.31;100691.38;5037940;28;20267;-75
2021/08/26 02:52:22;;;;;;;24.33;7.50;;;;;;;15.97;76.34;100692.59;5038874;28;20601;-75
2021/08/26 02:54:47;;;;;;;24.07;8.40;;;;;;;16.01;76.43;100696.91;5037841;28;20174;-75
2021/08/26 02:57:12;;;;;;;33.90;9.30;;;;;;;16.15;75.93;100697.56;5038148;28;20192;-75
2021/08/26 02:59:38;;;;;;;26.27;8.57;;;;;;;15.77;77.15;100684.94;5038503;28;20228;-75
2021/08/26 03:02:03;;;;;;;28.50;7.90;;;;;;;15.78;76.96;100687.53;5037941;28;20174;-76
2021/08/26 03:04:28;;;;;;;23.70;8.00;;;;;;;15.97;76.48;100684.69;5020569;28;20201;-76
2021/08/26 03:06:54;;;;;;;30.97;7.67;;;;;;;15.82;77.24;100699.78;5038481;28;20509;-77
2021/08/26 03:09:19;;;;;;;19.47;8.03;;;;;;;16.01;76.53;100696.91;5038034;28;20181;-75
2021/08/26 03:11:44;;;;;;;25.10;8.37;;;;;;;16.13;76.03;100701.13;5037993;28;20174;-75
2021/08/26 03:14:10;;;;;;;28.53;8.10;;;;;;;15.99;76.30;100686.41;5038110;28;20212;-75
2021/08/26 03:16:35;;;;;;;25.30;7.93;;;;;;;15.83;77.27;100691.00;5025158;28;20216;-75
2021/08/26 03:19:01;;;;;;;24.17;8.07;;;;;;;15.97;76.60;100677.66;5023919;28;20392;-75
2021/08/26 03:21:26;;;;;;;29.93;10.47;;;;;;;16.35;75.50;100691.16;5038861;28;20217;-76
2021/08/26 03:23:51;;;;;;;29.63;9.67;;;;;;;16.00;76.26;100682.03;5041233;28;20170;-75
2021/08/26 03:26:17;;;;;;;18.93;8.07;;;;;;;16.20;75.31;100671.22;5041390;28;20217;-75
2021/08/26 03:28:42;;;;;;;28.57;8.77;;;;;;;16.31;75.30;100663.16;5024906;28;20240;-75
2021/08/26 03:31:23;;;;;;;30.93;9.53;;;;;;;16.33;75.25;100675.41;5075870;28;20547;-76
2021/08/26 03:33:48;;;;;;;22.80;7.50;;;;;;;16.07;76.29;100680.19;5075463;28;20438;-76
2021/08/26 03:36:14;;;;;;;28.77;8.33;;;;;;;16.13;76.18;100672.22;5075524;28;20179;-76
2021/08/26 03:38:40;;;;;;;20.07;7.43;;;;;;;15.98;76.96;100670.66;5075370;28;20203;-75
2021/08/26 03:41:06;;;;;;;23.03;7.70;;;;;;;15.99;76.43;100681.16;5076051;28;20165;-75
2021/08/26 03:43:31;;;;;;;21.00;8.50;;;;;;;16.29;75.36;100672.81;5075192;28;20795;-74
2021/08/26 03:45:56;;;;;;;19.70;7.00;;;;;;;16.06;76.72;100683.69;5075175;28;20199;-75
2021/08/26 03:48:22;;;;;;;21.40;7.67;;;;;;;16.17;75.88;100682.66;5074883;28;20164;-74
2021/08/26 03:50:47;;;;;;;24.17;9.20;;;;;;;16.21;75.53;100685.22;5075102;28;20207;-74
2021/08/26 03:53:12;;;;;;;26.03;9.30;;;;;;;16.10;75.71;100680.13;5075046;28;20177;-75
2021/08/26 03:55:37;;;;;;;20.73;8.40;;;;;;;16.03;76.80;100683.75;5075677;28;20169;-74
2021/08/26 03:58:03;;;;;;;24.60;8.10;;;;;;;16.24;75.97;100691.31;5075110;28;20169;-74
2021/08/26 04:00:28;;;;;;;28.90;8.30;;;;;;;16.08;76.55;100687.19;5075049;28;20166;-74
2021/08/26 04:02:54;;;;;;;23.50;8.53;;;;;;;16.33;75.63;100687.66;5075286;28;20240;-75
2021/08/26 04:05:19;;;;;;;25.13;8.40;;;;;;;16.40;75.86;100678.81;5074803;28;20196;-75
2021/08/26 04:07:44;;;;;;;21.97;7.40;;;;;;;16.04;76.32;100683.72;5074809;28;20226;-73
2021/08/26 04:10:10;;;;;;;25.73;8.80;;;;;;;16.31;75.33;100681.59;5075096;28;20181;-74
2021/08/26 04:12:35;;;;;;;23.50;8.10;;;;;;;16.14;76.04;100669.56;5074067;28;20581;-75
2021/08/26 04:15:00;;;;;;;17.80;7.50;;;;;;;15.72;77.51;100677.13;5074690;28;20173;-75
2021/08/26 04:17:25;;;;;;;24.60;8.40;;;;;;;16.09;76.57;100689.78;5074363;28;20463;-74
2021/08/26 04:19:51;;;;;;;27.07;8.20;;;;;;;16.27;75.47;100685.16;5074627;28;20169;-75
2021/08/26 04:22:16;;;;;;;28.23;8.10;;;;;;;16.44;75.22;100675.25;5074639;28;20176;-74
2021/08/26 04:24:42;;;;;;;31.83;8.97;;;;;;;16.42;75.31;100676.16;5074911;28;20169;-74
2021/08/26 04:27:08;;;;;;;22.80;7.67;;;;;;;16.50;74.84;100677.75;5073760;28;20223;-74
2021/08/26 04:29:33;;;;;;;22.07;7.80;;;;;;;16.32;75.71;100668.41;5074299;28;20231;-75
2021/08/26 04:31:59;;;;;;;15.23;7.23;;;;;;;16.08;76.03;100681.91;5074901;28;20375;-75
2021/08/26 04:34:24;;;;;;;27.40;9.57;;;;;;;16.62;74.74;100676.69;5074244;28;20474;-73
2021/08/26 04:36:50;;;;;;;23.77;7.37;;;;;;;16.52;74.67;100671.59;5073508;28;20256;-76
2021/08/26 04:39:15;;;;;;;30.57;8.60;;;;;;;16.54;74.37;100677.72;5073902;28;20201;-76
2021/08/26 04:41:40;;;;;;;23.60;8.67;;;;;;;16.46;74.29;100676.06;5066793;28;20562;-76
2021/08/26 04:44:07;;;;;;;21.77;7.80;;;;;;;16.27;74.92;100679.88;5060168;28;20174;-76
2021/08/26 04:46:32;;;;;;;21.43;7.90;;;;;;;16.62;73.89;100681.97;5061388;28;20169;-75
2021/08/26 04:48:58;;;;;;;23.63;8.00;;;;;;;16.54;74.08;100685.63;5043475;28;20416;-74
2021/08/26 04:51:23;;;;;;;21.67;7.20;;;;;;;16.75;73.73;100669.47;5060872;28;20245;-75
2021/08/26 04:53:48;;;;;;;17.50;7.27;;;;;;;16.16;75.25;100670.38;5061173;28;20170;-75
2021/08/26 04:56:14;;;;;;;17.23;7.53;;;;;;;16.63;73.59;100675.81;5060795;28;20252;-74
2021/08/26 04:58:39;;;;;;;23.53;7.57;;;;;;;16.45;74.62;100674.34;5060789;28;20179;-75
2021/08/26 05:01:05;;;;;;;24.67;7.90;;;;;;;16.19;75.54;100666.00;5060545;28;20169;-75
2021/08/26 05:03:30;;;;;;;23.17;7.80;;;;;;;16.35;74.67;100671.88;5060475;28;20201;-75
2021/08/26 05:05:55;;;;;;;17.23;7.40;;;;;;;16.68;73.65;100686.25;5060506;28;20192;-75
2021/08/26 05:08:21;;;;;;;22.83;7.87;;;;;;;16.75;72.86;100674.75;5060900;28;20193;-75
2021/08/26 05:10:46;;;;;;;15.60;7.27;;;;;;;16.43;73.82;100672.63;5060256;28;20259;-75
2021/08/26 05:13:11;;;;;;;17.97;7.53;;;;;;;16.91;72.25;100680.63;5060169;28;20493;-75
2021/08/26 05:15:37;;;;;;;19.83;7.80;;;;;;;16.98;71.73;100678.75;5060769;28;20204;-75
2021/08/26 05:18:03;;;;;;;19.93;7.60;;;;;;;17.12;70.92;100676.75;5060211;28;20161;-75
2021/08/26 05:20:28;;;;;;;14.20;6.03;;;;;;;17.22;70.71;100664.25;5060387;28;20422;-77
2021/08/26 05:22:53;;;;;;;21.80;7.80;;;;;;;17.00;71.26;100663.81;5060696;28;20181;-76
2021/08/26 05:25:19;;;;;;;16.60;6.30;;;;;;;17.20;71.11;100663.44;5059696;28;20497;-77
2021/08/26 05:27:44;;;;;;;18.47;6.10;;;;;;;17.23;70.66;100659.88;5070739;28;20173;-76
2021/08/26 05:30:09;;;;;;;15.57;6.37;;;;;;;16.80;71.00;100670.25;5072627;28;20217;-76
2021/08/26 05:32:35;;;;;;;15.47;6.20;;;;;;;17.28;69.84;100665.94;5065021;28;20252;-76
2021/08/26 05:35:00;;;;;;;15.87;6.90;;;;;;;17.28;69.86;100660.66;5066642;28;20527;-75
2021/08/26 05:37:25;;;;;;;15.77;5.53;;;;;;;17.16;70.00;100673.16;5060480;28;20173;-76
2021/08/26 05:39:51;;;;;;;15.10;6.27;;;;;;;17.19;69.86;100682.78;5060434;28;20235;-76
2021/08/26 05:42:16;;;;;;;20.07;7.27;;;;;;;17.31;69.60;100682.53;5060723;28;20250;-77
2021/08/26 05:44:41;;;;;;;11.77;5.77;;;;;;;17.31;69.54;100692.22;5059923;28;20260;-77
2021/08/26 05:47:07;;;;;;;18.07;6.03;;;;;;;17.53;69.23;100682.09;5059610;28;20189;-74
2021/08/26 05:49:32;;;;;;;12.93;5.77;;;;;;;17.50;68.89;100684.81;5059504;28;20201;-75
2021/08/26 05:51:58;;;;;;;17.80;6.47;;;;;;;16.92;71.52;100689.41;5059794;28;20177;-75
2021/08/26 05:54:23;;;;;;;18.97;7.43;;;;;;;17.06;70.53;100689.16;5040936;28;20177;-74
2021/08/26 05:56:50;;;;;;;17.83;6.70;;;;;;;17.24;70.01;100685.31;5060003;28;20169;-74
2021/08/26 05:59:15;;;;;;;15.20;5.80;;;;;;;17.34;69.18;100690.38;5059526;28;20177;-74
2021/08/26 06:01:40;;;;;;;17.13;6.10;;;;;;;17.84;68.37;100687.59;5059371;28;20470;-74
2021/08/26 06:04:06;;;;;;;15.73;6.17;;;;;;;17.71;68.16;100688.78;5059932;28;20404;-74
2021/08/26 06:06:31;;;;;;;15.47;6.13;;;;;;;17.61;67.87;100689.88;5059385;28;20208;-74
2021/08/26 06:08:56;;;;;;;15.13;6.17;;;;;;;17.39;68.79;100689.44;5059209;28;20256;-75
2021/08/26 06:11:22;;;;;;;15.07;6.57;;;;;;;17.49;68.52;100686.59;5059711;28;20205;-75
2021/08/26 06:13:47;;;;;;;12.60;6.20;;;;;;;17.81;67.04;100687.69;5059231;28;20212;-74
2021/08/26 06:16:12;;;;;;;13.83;6.13;;;;;;;17.68;67.33;100697.63;5058371;28;20568;-73
2021/08/26 06:18:38;;;;;;;20.97;6.33;;;;;;;17.60;67.97;100709.22;5060114;28;20174;-75
2021/08/26 06:21:03;;;;;;;15.33;6.00;;;;;;;17.75;66.80;100714.19;5059237;28;20204;-75
2021/08/26 06:23:28;;;;;;;13.97;6.10;;;;;;;17.56;67.10;100708.41;5058260;28;20184;-76
2021/08/26 06:25:53;;;;;;;23.63;7.30;;;;;;;17.87;66.52;100712.19;5059522;28;20184;-76
2021/08/26 06:28:19;;;;;;;15.40;6.13;;;;;;;17.61;66.82;100718.88;5057983;28;20185;-77
2021/08/26 06:30:44;;;;;;;18.03;6.90;;;;;;;17.37;67.92;100731.59;5059542;28;20515;-76
2021/08/26 06:33:09;;;;;;;13.67;7.10;;;;;;;17.07;68.72;100739.16;5059305;28;20565;-77
2021/08/26 06:35:37;;;;;;;17.50;6.63;;;;;;;17.15;68.76;100757.47;5058146;28;20185;-76
2021/08/26 06:38:02;;;;;;;11.23;5.80;;;;;;;17.17;67.73;100759.19;5058786;28;20185;-77
2021/08/26 06:40:27;;;;;;;11.80;6.27;;;;;;;17.20;68.43;100746.84;5058497;28;20510;-77
2021/08/26 06:42:53;;;;;;;20.57;8.60;;;;;;;17.34;68.27;100736.94;5058811;28;20446;-77
2021/08/26 06:45:18;;;;;;;17.90;7.20;;;;;;;17.25;68.91;100751.16;5058480;28;20216;-77
2021/08/26 06:47:43;;;;;;;16.03;6.20;;;;;;;17.11;69.20;100742.63;5058836;28;20165;-78
2021/08/26 06:50:09;;;;;;;19.63;7.03;;;;;;;17.13;71.15;100722.38;5058572;28;20216;-76
2021/08/26 06:52:34;;;;;;;15.47;6.20;;;;;;;17.07;70.94;100698.81;5058537;28;20178;-77
2021/08/26 06:55:00;;;;;;;12.07;4.93;;;;;;;16.94;70.30;100706.91;5059183;28;20180;-78
2021/08/26 06:57:29;;;;;;;9.43;4.57;;;;;;;17.34;69.95;100707.94;5057912;28;20188;-77
2021/08/26 06:59:55;;;;;;;10.17;5.40;;;;;;;18.79;63.96;100704.81;5057498;28;20227;-77
2021/08/26 07:02:20;;;;;;;10.70;5.23;;;;;;;18.69;64.19;100722.66;5058521;28;20423;-77
2021/08/26 07:04:45;;;;;;;13.50;4.90;;;;;;;18.94;63.74;100737.94;5040645;28;20438;-76
2021/08/26 07:07:11;;;;;;;13.10;6.40;;;;;;;18.82;64.12;100736.44;5058357;28;20170;-76
2021/08/26 07:09:36;;;;;;;10.17;5.13;;;;;;;18.66;64.62;100724.53;5058431;28;20572;-77
2021/08/26 07:12:02;;;;;;;14.37;5.80;;;;;;;17.81;66.81;100734.28;5058323;28;20213;-77
2021/08/26 07:14:27;;;;;;;21.00;11.40;;;;;;;18.46;65.31;100739.06;5058189;28;20181;-76
2021/08/26 07:16:52;;;;;;;17.13;7.47;;;;;;;19.20;62.37;100725.84;5058568;28;20170;-76
2021/08/26 07:19:17;;;;;;;7.70;4.67;;;;;;;18.80;63.12;100721.53;5058266;28;20578;-77
2021/08/26 07:21:43;;;;;;;8.23;4.20;;;;;;;19.30;62.27;100710.59;5058352;28;20173;-76
2021/08/26 07:24:08;;;;;;;12.23;5.57;;;;;;;20.16;58.78;100712.53;5058368;28;20174;-74
2021/08/26 07:26:33;;;;;;;17.00;6.63;;;;;;;23.10;51.30;100708.06;5058064;28;20444;-77
2021/08/26 07:28:59;;;;;;;10.67;5.60;;;;;;;22.09;53.12;100710.38;5057764;28;20193;-76
2021/08/26 07:31:24;;;;;;;8.00;4.40;;;;;;;23.23;49.94;100697.75;5058225;28;20290;-75
2021/08/26 07:33:49;;;;;;;10.53;4.60;;;;;;;22.56;51.67;100706.81;5058204;28;20181;-77
2021/08/26 07:36:15;;;;;;;8.93;4.47;;;;;;;21.92;53.39;100708.38;5057208;28;20192;-76
2021/08/26 07:38:40;;;;;;;13.50;4.77;;;;;;;;;;5057439;28;20180;-76
2021/08/26 07:41:05;;;;;;;10.63;4.70;;;;;;;20.63;55.57;100710.16;5057725;28;20505;-75
2021/08/26 07:43:31;;;;;;;7.63;3.97;;;;;;;20.26;57.74;100719.31;5057687;28;20187;-75
2021/08/26 07:45:59;;;;;;;16.37;6.10;;;;;;;20.23;57.87;100714.09;5058309;28;20176;-78
2021/08/26 07:48:30;;;;;;;9.57;4.80;;;;;;;19.27;60.64;100715.97;5057763;28;20251;-78
2021/08/26 07:51:02;;;;;;;13.27;4.73;;;;;;;19.87;59.95;100697.56;5057088;28;20482;-77
2021/08/26 07:53:27;;;;;;;8.63;4.40;;;;;;;19.33;59.93;100703.44;5057725;28;20513;-76
2021/08/26 07:55:53;;;;;;;8.60;4.33;;;;;;;19.92;58.26;100698.31;5056944;28;20420;-76
2021/08/26 07:58:18;;;;;;;7.90;4.33;;;;;;;20.10;56.89;100707.47;5058156;28;20174;-78
2021/08/26 08:00:43;;;;;;;6.97;4.07;;;;;;;19.52;58.51;100713.50;5057710;28;20166;-77
2021/08/26 08:03:08;;;;;;;8.90;4.33;;;;;;;20.01;57.39;100713.88;5057583;28;20192;-77
2021/08/26 08:05:34;;;;;;;8.30;4.03;;;;;;;19.97;57.58;100721.06;5057833;28;20170;-76
2021/08/26 08:07:59;;;;;;;5.60;3.80;;;;;;;19.60;58.21;100724.72;5057501;28;20527;-76
2021/08/26 08:10:24;;;;;;;7.10;4.03;;;;;;;19.92;57.02;100719.47;5057538;28;20236;-76
2021/08/26 08:12:50;;;;;;;8.03;4.43;;;;;;;19.87;57.31;100721.38;5058305;28;20193;-76
2021/08/26 08:15:15;;;;;;;11.00;4.50;;;;;;;19.61;57.56;100721.19;5057627;28;20193;-73
2021/08/26 08:17:40;;;;;;;7.37;4.33;;;;;;;19.35;59.07;100729.84;5060340;28;20473;-75
2021/08/26 08:20:09;;;;;;;6.87;3.80;;;;;;;19.42;57.52;100731.41;5061806;28;20403;-75
2021/08/26 08:22:34;;;;;;;11.57;4.10;;;;;;;19.06;58.54;100728.81;5061225;28;20216;-76
2021/08/26 08:25:00;;;;;;;9.60;3.90;;;;;;;19.33;57.98;100735.16;5061189;28;20408;-77
2021/08/26 08:27:25;;;;;;;5.90;3.43;;;;;;;19.15;58.70;100736.50;5061795;28;20173;-76
2021/08/26 08:29:51;;;;;;;9.57;4.30;;;;;;;19.50;57.50;100736.50;5060844;28;20232;-75
2021/08/26 08:32:19;;;;;;;9.40;3.60;;;;;;;19.65;57.14;100733.41;5060605;28;20421;-74
2021/08/26 08:34:44;;;;;;;9.20;3.60;;;;;;;19.59;56.70;100744.16;5060770;28;20184;-78
2021/08/26 08:37:09;;;;;;;12.30;4.20;;;;;;;19.48;56.67;100740.94;5060936;28;20419;-76
2021/08/26 08:39:35;;;;;;;9.33;4.23;;;;;;;20.00;55.98;100743.94;5060916;28;20295;-78
2021/08/26 08:42:00;;;;;;;7.50;3.83;;;;;;;20.28;55.11;100743.06;5060771;28;20421;-77
2021/08/26 08:44:25;;;;;;;10.57;3.77;;;;;;;22.06;49.77;100740.56;5060743;28;20253;-76
2021/08/26 08:46:55;;;;;;;7.73;3.77;;;;;;;23.49;45.87;100731.19;5059938;28;20228;-75
2021/08/26 08:49:21;;;;;;;7.63;3.43;;;;;;;22.32;47.70;100731.56;5061159;28;20606;-75
2021/08/26 08:51:49;;;;;;;11.40;3.80;;;;;;;21.10;49.73;100733.38;5060101;28;20794;-74
2021/08/26 08:54:15;;;;;;;6.00;4.13;;;;;;;21.99;48.88;100739.09;5060441;28;20419;-76
2021/08/26 08:56:40;;;;;;;10.63;3.57;;;;;;;22.58;47.75;100734.16;5060956;28;20677;-77
2021/08/26 08:59:06;;;;;;;6.77;3.53;;;;;;;24.34;43.86;100735.31;5060718;28;20440;-77
2021/08/26 09:01:31;;;;;;;6.97;3.60;;;;;;;23.67;43.77;100733.97;5060641;28;20174;-77
2021/08/26 09:03:56;;;;;;;7.20;3.30;;;;;;;22.58;46.27;100742.13;5060907;28;20166;-77
2021/08/26 09:06:22;;;;;;;8.80;4.33;;;;;;;24.70;42.66;100739.81;5060541;28;20441;-77
2021/08/26 09:09:03;;;;;;;5.57;3.20;;;;;;;26.72;38.12;100720.16;5060555;28;20212;-76
2021/08/26 09:11:29;;;;;;;8.80;3.17;;;;;;;26.61;38.95;100733.25;5060257;28;20173;-76
2021/08/26 09:13:54;;;;;;;5.27;3.20;;;;;;;26.47;38.39;100731.38;5059545;28;20473;-76
2021/08/26 09:16:35;;;;;;;8.43;3.53;;;;;;;26.68;37.34;100726.63;5060641;28;20268;-73
2021/08/26 09:19:24;;;;;;;7.33;3.70;;;;;;;27.06;37.08;100726.19;5060413;28;20193;-71
2021/08/26 09:21:50;;;;;;;7.13;3.30;;;;;;;27.25;37.13;100724.22;5060151;28;20415;-76
2021/08/26 09:24:15;;;;;;;5.77;3.27;;;;;;;27.19;36.29;100726.28;5059940;28;20785;-75
2021/08/26 09:26:42;;;;;;;8.33;3.80;;;;;;;28.26;34.69;100718.84;5060204;28;20438;-71
2021/08/26 09:29:10;;;;;;;7.73;3.80;;;;;;;27.34;36.94;100718.28;5059893;28;20189;-75
2021/08/26 09:31:35;;;;;;;4.90;3.17;;;;;;;26.38;37.46;100714.06;5059717;28;20424;-75
2021/08/26 09:34:03;;;;;;;5.07;2.93;;;;;;;26.45;37.66;100721.72;5059679;28;20543;-76
2021/08/26 09:36:56;;;;;;;5.70;2.97;;;;;;;25.38;38.53;100724.84;5060396;28;20185;-75
2021/08/26 09:39:29;;;;;;;4.80;2.80;;;;;;;25.25;38.01;100724.63;5059869;28;20511;-75
2021/08/26 09:42:03;;;;;;;7.07;3.63;;;;;;;26.49;36.55;100709.91;5059304;28;20423;-75
2021/08/26 09:44:36;;;;;;;4.30;3.20;;;;;;;26.06;36.88;100715.91;5059041;28;20408;-74
2021/08/26 09:47:06;;;;;;;4.63;3.33;;;;;;;26.61;36.37;100714.53;5059769;28;20416;-76
2021/08/26 09:49:36;;;;;;;7.63;3.20;;;;;;;25.62;37.95;100713.81;5059678;28;20470;-75
2021/08/26 09:52:12;;;;;;;3.90;3.03;;;;;;;25.25;37.90;100710.38;5059635;28;20429;-74
2021/08/26 09:54:49;;;;;;;6.60;3.57;;;;;;;26.40;36.51;100703.28;5059754;28;20410;-75
2021/08/26 09:57:24;;;;;;;5.00;2.87;;;;;;;25.74;37.23;100715.81;5059584;28;20408;-76
2021/08/26 09:59:52;;;;;;;3.23;2.60;;;;;;;27.06;36.28;100699.44;5059685;28;20486;-76
2021/08/26 10:02:19;;;;;;;6.70;2.67;;;;;;;26.02;36.86;100709.84;5059639;28;20408;-76
2021/08/26 10:04:45;;;;;;;5.17;2.77;;;;;;;24.10;40.56;100709.84;5059558;28;20529;-74
2021/08/26 10:07:10;;;;;;;5.73;2.90;;;;;;;24.65;39.21;100717.88;5060090;28;20753;-76
2021/08/26 10:09:40;;;;;;;4.57;3.23;;;;;;;23.87;40.41;100717.94;5059648;28;20197;-76
2021/08/26 10:12:07;;;;;;;4.73;2.60;;;;;;;23.78;40.66;100709.53;5059262;28;20178;-75
2021/08/26 10:14:33;;;;;;;3.90;2.60;;;;;;;24.62;38.55;100710.00;5060064;28;20495;-76
2021/08/26 10:17:00;;;;;;;5.57;2.50;;;;;;;26.28;35.67;100701.31;5058643;28;20420;-76
2021/08/26 10:19:25;;;;;;;4.77;3.47;;;;;;;25.54;36.61;100709.72;5059134;28;20421;-77
2021/08/26 10:21:51;;;;;;;7.87;3.77;;;;;;;24.49;38.79;100714.16;5059130;28;20405;-77
2021/08/26 10:24:19;;;;;;;5.60;3.50;;;;;;;23.00;40.87;100718.22;5058900;28;20181;-78
2021/08/26 10:26:46;;;;;;;3.77;2.83;;;;;;;22.37;44.85;100718.16;5058909;28;20252;-74
2021/08/26 10:29:12;;;;;;;7.60;3.40;;;;;;;21.38;47.32;100729.78;5058513;28;20424;-75
2021/08/26 10:31:39;;;;;;;3.70;2.80;;;;;;;22.92;44.69;100722.13;5058937;28;20458;-74
2021/08/26 10:34:21;;;;;;;14.00;3.80;;;;;;;24.29;41.74;100716.03;5058897;28;20779;-75
2021/08/26 10:36:56;;;;;;;5.80;3.03;;;;;;;25.55;38.26;100719.47;5059005;28;20424;-74
2021/08/26 10:39:28;;;;;;;5.80;3.10;;;;;;;26.17;37.63;100712.63;5058322;28;20418;-76
2021/08/26 10:41:55;;;;;;;5.33;3.03;;;;;;;24.52;39.96;100725.56;5058558;28;20420;-74
2021/08/26 10:44:20;;;;;;;6.00;3.10;;;;;;;23.47;40.04;100727.72;5058563;28;20557;-75
2021/08/26 10:46:49;;;;;;;3.93;2.50;;;;;;;22.23;43.18;100733.72;5058138;28;20802;-73
2021/08/26 10:49:15;;;;;;;3.63;2.83;;;;;;;21.52;45.35;100734.56;5061950;28;20180;-76
2021/08/26 10:51:42;;;;;;;6.87;3.57;;;;;;;21.27;45.34;100747.84;5058957;28;20432;-75
2021/08/26 10:54:33;;;;;;;3.80;2.50;;;;;;;20.74;46.41;100752.25;5058723;28;20409;-74
2021/08/26 10:57:23;;;;;;;5.50;2.77;;;;;;;22.13;43.19;100741.19;5058280;28;20420;-73
2021/08/26 10:59:49;;;;;;;11.27;7.80;;;;;;;21.65;43.71;100742.97;5058460;28;20442;-73
2021/08/26 11:02:42;;;;;;;4.90;3.37;;;;;;;23.11;40.57;100739.03;5058313;28;20424;-73
2021/08/26 11:05:35;;;;;;;9.97;5.70;;;;;;;23.93;38.27;100734.59;5058348;28;20208;-74
2021/08/26 11:08:02;;;;;;;6.33;4.20;;;;;;;22.48;39.04;100739.84;5058168;28;20427;-76
2021/08/26 11:10:28;;;;;;;7.97;5.17;;;;;;;21.81;39.13;100751.25;5057655;28;20483;-76
2021/08/26 11:13:27;;;;;;;4.03;2.53;;;;;;;21.39;41.02;100747.41;5058222;28;20823;-76
2021/08/26 11:15:52;;;;;;;3.80;2.40;;;;;;;20.74;41.77;100751.38;5058500;28;20193;-76
2021/08/26 11:18:28;;;;;;;4.70;3.10;;;;;;;21.24;40.81;100754.09;5058681;28;20439;-76
2021/08/26 11:20:54;;;;;;;4.37;2.70;;;;;;;20.75;41.59;100764.56;5059194;28;20169;-77
2021/08/26 11:23:43;;;;;;;6.57;3.60;;;;;;;20.25;42.38;100761.72;5059689;28;20906;-75
2021/08/26 11:26:50;;;;;;;6.53;4.00;;;;;;;21.06;41.55;100758.25;5058868;28;20177;-77